createdAt,value
2018-04-11T00:00:27.762Z,62.50
2018-04-11T00:01:27.731Z,60.22
2018-04-11T00:02:27.706Z,57.85
2018-04-11T00:03:27.680Z,57.57
2018-04-11T00:04:27.654Z,57.19
2018-04-11T00:05:27.632Z,56.90
2018-04-11T00:06:27.601Z,56.24
2018-04-11T00:07:27.576Z,56.81
2018-04-11T00:08:27.550Z,56.71
2018-04-11T00:09:27.523Z,57.19
2018-04-11T00:10:27.497Z,56.71
2018-04-11T00:11:27.472Z,57.76
2018-04-11T00:12:27.448Z,58.61
2018-04-11T00:13:27.420Z,58.70
2018-04-11T00:14:27.395Z,60.89
2018-04-11T00:15:28.121Z,60.22
2018-04-11T00:16:27.345Z,59.75
2018-04-11T00:17:27.318Z,59.37
2018-04-11T00:18:27.297Z,59.46
2018-04-11T00:19:27.267Z,56.90
2018-04-11T00:20:27.244Z,56.24
2018-04-11T00:21:27.215Z,56.05
2018-04-11T00:22:27.193Z,54.25
2018-04-11T00:23:27.165Z,56.81
2018-04-11T00:24:27.143Z,56.99
2018-04-11T00:25:27.113Z,56.90
2018-04-11T00:26:27.087Z,52.35
2018-04-11T00:27:27.062Z,52.45
2018-04-11T00:28:27.035Z,52.73
2018-04-11T00:29:27.007Z,50.55
2018-04-11T00:30:26.980Z,50.45
2018-04-11T00:31:26.956Z,50.55
2018-04-11T00:32:26.928Z,50.45
2018-04-11T00:33:26.901Z,50.83
2018-04-11T00:34:26.876Z,51.21
2018-04-11T00:35:26.847Z,52.64
2018-04-11T00:36:26.822Z,54.44
2018-04-11T00:37:26.793Z,53.68
2018-04-11T00:38:26.767Z,53.11
2018-04-11T00:39:26.742Z,52.45
2018-04-11T00:40:26.715Z,51.21
2018-04-11T00:41:28.945Z,51.21
2018-04-11T00:42:26.663Z,52.16
2018-04-11T00:43:26.636Z,54.91
2018-04-11T00:44:26.610Z,56.81
2018-04-11T00:45:26.584Z,56.15
2018-04-11T00:46:26.601Z,52.64
2018-04-11T00:47:26.532Z,51.78
2018-04-11T00:48:26.507Z,52.73
2018-04-11T00:49:26.480Z,52.45
2018-04-11T00:50:26.454Z,51.21
2018-04-11T00:51:26.429Z,49.98
2018-04-11T00:52:26.402Z,49.88
2018-04-11T00:53:26.377Z,49.88
2018-04-11T00:54:26.348Z,49.79
2018-04-11T00:55:26.323Z,50.07
2018-04-11T00:56:26.295Z,49.03
2018-04-11T00:57:26.272Z,48.46
2018-04-11T00:58:26.242Z,48.56
2018-04-11T00:59:26.215Z,47.04
2018-04-11T01:00:26.191Z,46.19
2018-04-11T01:01:26.162Z,45.43
2018-04-11T01:02:26.136Z,43.91
2018-04-11T01:03:26.110Z,43.62
2018-04-11T01:04:26.084Z,43.62
2018-04-11T01:05:26.057Z,44.10
2018-04-11T01:06:26.030Z,45.05
2018-04-11T01:07:26.004Z,46.56
2018-04-11T01:08:25.979Z,46.56
2018-04-11T01:09:25.952Z,46.85
2018-04-11T01:10:25.924Z,47.52
2018-04-11T01:11:25.900Z,48.65
2018-04-11T01:12:25.874Z,49.51
2018-04-11T01:13:27.405Z,49.98
2018-04-11T01:14:25.824Z,49.98
2018-04-11T01:15:25.796Z,48.36
2018-04-11T01:16:25.769Z,47.89
2018-04-11T01:17:25.744Z,47.23
2018-04-11T01:18:25.722Z,47.42
2018-04-11T01:19:25.690Z,47.99
2018-04-11T01:20:25.665Z,48.46
2018-04-11T01:21:25.642Z,48.27
2018-04-11T01:22:25.611Z,49.98
2018-04-11T01:23:25.587Z,50.26
2018-04-11T01:24:25.588Z,51.78
2018-04-11T01:25:25.533Z,52.64
2018-04-11T01:26:25.506Z,51.78
2018-04-11T01:27:25.481Z,51.31
2018-04-11T01:28:25.456Z,52.45
2018-04-11T01:29:25.428Z,53.77
2018-04-11T01:30:25.402Z,52.45
2018-04-11T01:31:25.377Z,51.31
2018-04-11T01:32:25.354Z,49.98
2018-04-11T01:33:25.323Z,48.46
2018-04-11T01:34:25.340Z,46.09
2018-04-11T01:35:25.271Z,45.90
2018-04-11T01:36:25.245Z,45.81
2018-04-11T01:37:25.217Z,46.37
2018-04-11T01:38:25.191Z,45.90
2018-04-11T01:39:25.165Z,46.56
2018-04-11T01:40:25.139Z,46.37
2018-04-11T01:41:25.112Z,46.75
2018-04-11T01:42:25.085Z,47.71
2018-04-11T01:43:25.059Z,48.46
2018-04-11T01:44:25.033Z,48.75
2018-04-11T01:45:25.006Z,48.54
2018-04-11T01:46:24.979Z,47.02
2018-04-11T01:47:24.953Z,47.58
2018-04-11T01:48:24.928Z,46.54
2018-04-11T01:49:24.904Z,45.69
2018-04-11T01:50:25.625Z,45.88
2018-04-11T01:51:24.853Z,45.97
2018-04-11T01:52:24.825Z,46.35
2018-04-11T01:53:24.795Z,45.88
2018-04-11T01:54:24.777Z,45.78
2018-04-11T01:55:24.743Z,45.69
2018-04-11T01:56:24.717Z,44.74
2018-04-11T01:57:24.690Z,44.17
2018-04-11T01:58:24.663Z,44.08
2018-04-11T01:59:24.638Z,43.70
2018-04-11T02:00:24.613Z,44.17
2018-04-11T02:01:24.584Z,43.60
2018-04-11T02:02:24.560Z,43.70
2018-04-11T02:03:24.538Z,43.32
2018-04-11T02:04:24.506Z,42.85
2018-04-11T02:05:24.480Z,42.94
2018-04-11T02:06:25.204Z,43.32
2018-04-11T02:07:24.427Z,42.66
2018-04-11T02:08:24.401Z,42.85
2018-04-11T02:09:24.374Z,43.51
2018-04-11T02:10:24.347Z,45.31
2018-04-11T02:11:24.321Z,45.40
2018-04-11T02:12:24.295Z,44.17
2018-04-11T02:13:24.267Z,44.27
2018-04-11T02:14:24.240Z,44.46
2018-04-11T02:15:24.214Z,43.60
2018-04-11T02:16:24.190Z,44.36
2018-04-11T02:17:24.165Z,46.83
2018-04-11T02:18:24.135Z,52.23
2018-04-11T02:19:24.109Z,51.47
2018-04-11T02:20:24.083Z,48.63
2018-04-11T02:21:24.056Z,47.11
2018-04-11T02:22:24.028Z,47.68
2018-04-11T02:23:24.006Z,48.25
2018-04-11T02:24:23.977Z,48.91
2018-04-11T02:25:23.950Z,48.06
2018-04-11T02:26:23.925Z,48.44
2018-04-11T02:27:25.399Z,47.30
2018-04-11T02:28:23.870Z,46.64
2018-04-11T02:29:23.843Z,46.07
2018-04-11T02:30:23.817Z,45.88
2018-04-11T02:31:23.795Z,45.03
2018-04-11T02:32:23.765Z,45.12
2018-04-11T02:33:23.736Z,44.55
2018-04-11T02:34:23.710Z,44.65
2018-04-11T02:35:23.685Z,41.61
2018-04-11T02:36:23.659Z,41.24
2018-04-11T02:37:23.630Z,41.05
2018-04-11T02:38:23.604Z,41.33
2018-04-11T02:39:23.580Z,41.14
2018-04-11T02:40:23.552Z,42.27
2018-04-11T02:41:23.526Z,42.66
2018-04-11T02:42:23.499Z,41.61
2018-04-11T02:43:23.474Z,41.61
2018-04-11T02:44:23.448Z,42.94
2018-04-11T02:45:23.420Z,41.89
2018-04-11T02:46:23.392Z,40.47
2018-04-11T02:47:23.366Z,39.24
2018-04-11T02:48:23.338Z,38.10
2018-04-11T02:49:23.318Z,37.73
2018-04-11T02:50:23.285Z,38.10
2018-04-11T02:51:23.260Z,38.60
2018-04-11T02:52:23.234Z,38.69
2018-04-11T02:53:23.205Z,39.73
2018-04-11T02:54:23.179Z,40.40
2018-04-11T02:55:23.154Z,41.16
2018-04-11T02:56:23.127Z,41.54
2018-04-11T02:57:23.102Z,42.30
2018-04-11T02:58:23.073Z,42.77
2018-04-11T02:59:23.047Z,43.05
2018-04-11T03:00:23.021Z,43.34
2018-04-11T03:01:22.993Z,43.53
2018-04-11T03:02:22.968Z,44.01
2018-04-11T03:03:22.941Z,44.95
2018-04-11T03:04:22.916Z,45.52
2018-04-11T03:05:22.893Z,45.90
2018-04-11T03:06:22.862Z,46.09
2018-04-11T03:07:22.835Z,46.09
2018-04-11T03:08:22.810Z,46.19
2018-04-11T03:09:22.815Z,46.09
2018-04-11T03:10:22.758Z,45.62
2018-04-11T03:11:22.730Z,45.24
2018-04-11T03:12:22.704Z,45.05
2018-04-11T03:13:22.677Z,45.14
2018-04-11T03:14:22.651Z,45.71
2018-04-11T03:15:22.627Z,46.00
2018-04-11T03:16:22.599Z,46.09
2018-04-11T03:17:22.571Z,46.37
2018-04-11T03:18:22.545Z,46.37
2018-04-11T03:19:22.519Z,46.66
2018-04-11T03:20:22.493Z,46.47
2018-04-11T03:21:22.466Z,46.07
2018-04-11T03:22:22.460Z,45.31
2018-04-11T03:23:22.412Z,43.04
2018-04-11T03:24:22.391Z,42.56
2018-04-11T03:25:22.360Z,41.52
2018-04-11T03:26:22.334Z,40.38
2018-04-11T03:27:22.307Z,40.28
2018-04-11T03:28:22.281Z,39.90
2018-04-11T03:29:22.252Z,40.00
2018-04-11T03:30:22.233Z,41.14
2018-04-11T03:31:22.202Z,42.85
2018-04-11T03:32:22.175Z,44.36
2018-04-11T03:33:22.148Z,44.74
2018-04-11T03:34:22.122Z,43.23
2018-04-11T03:35:22.094Z,42.18
2018-04-11T03:36:22.072Z,41.80
2018-04-11T03:37:22.042Z,41.42
2018-04-11T03:38:22.014Z,41.61
2018-04-11T03:39:21.989Z,42.85
2018-04-11T03:40:21.968Z,41.52
2018-04-11T03:41:21.935Z,41.05
2018-04-11T03:42:21.908Z,40.38
2018-04-11T03:43:21.883Z,40.47
2018-04-11T03:44:21.856Z,40.00
2018-04-11T03:45:21.829Z,41.42
2018-04-11T03:46:23.304Z,40.85
2018-04-11T03:47:21.776Z,40.95
2018-04-11T03:48:21.749Z,40.47
2018-04-11T03:49:21.725Z,39.15
2018-04-11T03:50:21.697Z,38.96
2018-04-11T03:51:21.673Z,38.29
2018-04-11T03:52:21.644Z,37.16
2018-04-11T03:53:21.617Z,36.78
2018-04-11T03:54:21.591Z,37.63
2018-04-11T03:55:21.565Z,38.48
2018-04-11T03:56:21.537Z,38.86
2018-04-11T03:57:21.509Z,39.53
2018-04-11T03:58:21.483Z,39.90
2018-04-11T03:59:21.456Z,40.57
2018-04-11T04:00:21.435Z,40.28
2018-04-11T04:01:21.403Z,40.95
2018-04-11T04:02:21.376Z,41.42
2018-04-11T04:03:21.350Z,40.57
2018-04-11T04:04:21.323Z,40.38
2018-04-11T04:05:21.297Z,39.90
2018-04-11T04:06:21.270Z,40.19
2018-04-11T04:07:21.243Z,40.38
2018-04-11T04:08:21.218Z,40.38
2018-04-11T04:09:21.190Z,40.66
2018-04-11T04:10:21.163Z,40.09
2018-04-11T04:11:21.141Z,39.43
2018-04-11T04:12:21.112Z,39.34
2018-04-11T04:13:21.085Z,39.34
2018-04-11T04:14:21.057Z,39.62
2018-04-11T04:15:21.033Z,41.24
2018-04-11T04:16:21.008Z,41.02
2018-04-11T04:17:20.976Z,40.47
2018-04-11T04:18:20.951Z,39.41
2018-04-11T04:19:20.923Z,39.62
2018-04-11T04:20:20.900Z,40.08
2018-04-11T04:21:20.875Z,39.51
2018-04-11T04:22:20.845Z,39.15
2018-04-11T04:23:20.818Z,37.99
2018-04-11T04:24:20.791Z,37.42
2018-04-11T04:25:20.765Z,37.73
2018-04-11T04:26:20.737Z,37.42
2018-04-11T04:27:20.711Z,37.04
2018-04-11T04:28:20.685Z,37.14
2018-04-11T04:29:20.658Z,37.04
2018-04-11T04:30:20.631Z,36.38
2018-04-11T04:31:20.605Z,35.34
2018-04-11T04:32:20.577Z,34.98
2018-04-11T04:33:20.551Z,34.03
2018-04-11T04:34:20.525Z,33.84
2018-04-11T04:35:20.498Z,34.03
2018-04-11T04:36:20.472Z,34.12
2018-04-11T04:37:20.447Z,34.11
2018-04-11T04:38:20.421Z,33.73
2018-04-11T04:39:20.391Z,33.56
2018-04-11T04:40:20.364Z,33.65
2018-04-11T04:41:20.337Z,33.84
2018-04-11T04:42:20.312Z,33.84
2018-04-11T04:43:20.284Z,32.98
2018-04-11T04:44:20.259Z,31.95
2018-04-11T04:45:20.232Z,32.04
2018-04-11T04:46:20.204Z,32.14
2018-04-11T04:47:20.180Z,32.42
2018-04-11T04:48:20.153Z,32.23
2018-04-11T04:49:20.126Z,32.32
2018-04-11T04:50:20.098Z,33.37
2018-04-11T04:51:20.081Z,34.03
2018-04-11T04:52:20.046Z,34.31
2018-04-11T04:53:20.021Z,34.31
2018-04-11T04:54:19.992Z,34.31
2018-04-11T04:55:19.965Z,34.78
2018-04-11T04:56:19.939Z,35.36
2018-04-11T04:57:19.913Z,33.17
2018-04-11T04:58:19.887Z,31.95
2018-04-11T04:59:19.861Z,32.60
2018-04-11T05:00:19.834Z,34.69
2018-04-11T05:01:19.807Z,35.64
2018-04-11T05:02:19.782Z,36.97
2018-04-11T05:03:19.754Z,37.27
2018-04-11T05:04:19.728Z,37.93
2018-04-11T05:05:19.702Z,39.26
2018-04-11T05:06:19.674Z,39.73
2018-04-11T05:07:19.649Z,39.45
2018-04-11T05:08:19.622Z,40.78
2018-04-11T05:09:19.594Z,41.44
2018-04-11T05:10:20.320Z,42.30
2018-04-11T05:11:19.542Z,42.39
2018-04-11T05:12:19.520Z,41.82
2018-04-11T05:13:19.489Z,40.97
2018-04-11T05:14:19.462Z,41.16
2018-04-11T05:15:19.437Z,41.63
2018-04-11T05:16:19.413Z,41.82
2018-04-11T05:17:19.383Z,40.50
2018-04-11T05:18:19.357Z,40.59
2018-04-11T05:19:19.332Z,39.36
2018-04-11T05:20:19.304Z,38.69
2018-04-11T05:21:19.277Z,38.22
2018-04-11T05:22:19.251Z,38.31
2018-04-11T05:23:19.225Z,38.69
2018-04-11T05:24:19.200Z,39.26
2018-04-11T05:25:19.174Z,39.36
2018-04-11T05:26:19.147Z,39.17
2018-04-11T05:27:19.132Z,39.54
2018-04-11T05:28:19.095Z,39.36
2018-04-11T05:29:19.066Z,38.98
2018-04-11T05:30:19.042Z,39.73
2018-04-11T05:31:19.019Z,40.59
2018-04-11T05:32:18.989Z,40.97
2018-04-11T05:33:18.962Z,41.73
2018-04-11T05:34:18.936Z,43.15
2018-04-11T05:35:18.910Z,44.95
2018-04-11T05:36:19.635Z,45.90
2018-04-11T05:37:18.857Z,46.21
2018-04-11T05:38:18.831Z,46.11
2018-04-11T05:39:18.805Z,46.59
2018-04-11T05:40:18.780Z,46.49
2018-04-11T05:41:18.752Z,47.73
2018-04-11T05:42:18.730Z,47.06
2018-04-11T05:43:18.700Z,47.34
2018-04-11T05:44:18.675Z,47.63
2018-04-11T05:45:18.649Z,48.96
2018-04-11T05:46:18.622Z,50.10
2018-04-11T05:47:18.597Z,50.10
2018-04-11T05:48:18.573Z,49.05
2018-04-11T05:49:18.543Z,49.05
2018-04-11T05:50:18.517Z,49.05
2018-04-11T05:51:18.492Z,48.11
2018-04-11T05:52:18.465Z,48.20
2018-04-11T05:53:18.438Z,48.77
2018-04-11T05:54:18.415Z,49.05
2018-04-11T05:55:18.387Z,49.82
2018-04-11T05:56:18.362Z,50.01
2018-04-11T05:57:18.335Z,51.52
2018-04-11T05:58:18.308Z,53.14
2018-04-11T05:59:18.288Z,53.80
2018-04-11T06:00:18.258Z,54.66
2018-04-11T06:01:18.231Z,54.46
2018-04-11T06:02:18.205Z,53.89
2018-04-11T06:03:18.180Z,54.02
2018-04-11T06:04:18.153Z,55.54
2018-04-11T06:05:18.127Z,56.87
2018-04-11T06:06:18.102Z,56.96
2018-04-11T06:07:18.076Z,56.68
2018-04-11T06:08:18.049Z,58.67
2018-04-11T06:09:18.024Z,60.76
2018-04-11T06:10:17.996Z,60.00
2018-04-11T06:11:17.974Z,60.10
2018-04-11T06:12:17.945Z,60.10
2018-04-11T06:13:17.919Z,59.33
2018-04-11T06:14:17.893Z,61.14
2018-04-11T06:15:17.867Z,60.38
2018-04-11T06:16:17.842Z,61.04
2018-04-11T06:17:17.816Z,61.42
2018-04-11T06:18:17.789Z,61.33
2018-04-11T06:19:17.769Z,61.42
2018-04-11T06:20:17.738Z,62.08
2018-04-11T06:21:17.713Z,63.04
2018-04-11T06:22:17.687Z,63.42
2018-04-11T06:23:17.662Z,61.80
2018-04-11T06:24:17.635Z,63.70
2018-04-11T06:25:17.610Z,63.64
2018-04-11T06:26:17.584Z,63.54
2018-04-11T06:27:17.559Z,65.44
2018-04-11T06:28:17.535Z,67.06
2018-04-11T06:29:17.507Z,66.87
2018-04-11T06:30:17.482Z,69.15
2018-04-11T06:31:17.457Z,67.82
2018-04-11T06:32:17.430Z,66.77
2018-04-11T06:33:17.405Z,67.63
2018-04-11T06:34:17.379Z,66.11
2018-04-11T06:35:17.354Z,66.49
2018-04-11T06:36:17.329Z,65.82
2018-04-11T06:37:17.303Z,66.58
2018-04-11T06:38:22.533Z,66.96
2018-04-11T06:39:17.253Z,66.58
2018-04-11T06:40:17.226Z,68.19
2018-04-11T06:41:17.201Z,68.19
2018-04-11T06:42:17.176Z,72.56
2018-04-11T06:43:17.151Z,71.81
2018-04-11T06:44:18.631Z,70.42
2018-04-11T06:45:17.101Z,70.51
2018-04-11T06:46:17.076Z,74.51
2018-04-11T06:47:17.059Z,75.99
2018-04-11T06:48:17.026Z,75.04
2018-04-11T06:49:17.001Z,73.14
2018-04-11T06:50:16.976Z,73.27
2018-04-11T06:51:16.951Z,71.75
2018-04-11T06:52:16.927Z,74.60
2018-04-11T06:53:16.900Z,75.84
2018-04-11T06:54:16.876Z,74.51
2018-04-11T06:55:16.865Z,74.51
2018-04-11T06:56:16.827Z,76.78
2018-04-11T06:57:16.801Z,77.36
2018-04-11T06:58:16.816Z,75.93
2018-04-11T06:59:16.753Z,76.21
2018-04-11T07:00:16.729Z,75.07
2018-04-11T07:01:17.454Z,74.98
2018-04-11T07:02:16.682Z,74.12
2018-04-11T07:03:16.654Z,75.74
2018-04-11T07:04:16.632Z,76.12
2018-04-11T07:05:16.606Z,74.03
2018-04-11T07:06:16.578Z,74.51
2018-04-11T07:07:16.554Z,76.21
2018-04-11T07:08:16.529Z,76.97
2018-04-11T07:09:16.507Z,76.59
2018-04-11T07:10:16.479Z,77.49
2018-04-11T07:11:16.456Z,77.87
2018-04-11T07:12:16.430Z,78.91
2018-04-11T07:13:16.406Z,79.30
2018-04-11T07:14:16.380Z,78.72
2018-04-11T07:15:16.357Z,79.49
2018-04-11T07:16:16.333Z,79.01
2018-04-11T07:17:17.058Z,78.16
2018-04-11T07:18:16.285Z,81.10
2018-04-11T07:19:16.257Z,80.72
2018-04-11T07:20:16.232Z,79.86
2018-04-11T07:21:16.207Z,81.20
2018-04-11T07:22:16.183Z,80.34
2018-04-11T07:23:16.158Z,80.53
2018-04-11T07:24:16.134Z,80.05
2018-04-11T07:25:16.108Z,80.38
2018-04-11T07:26:16.085Z,78.82
2018-04-11T07:27:16.060Z,80.19
2018-04-11T07:28:16.035Z,80.38
2018-04-11T07:29:16.024Z,81.24
2018-04-11T07:30:15.987Z,83.71
2018-04-11T07:31:15.962Z,82.76
2018-04-11T07:32:15.938Z,81.33
2018-04-11T07:33:18.164Z,82.09
2018-04-11T07:34:15.887Z,82.09
2018-04-11T07:35:15.863Z,82.38
2018-04-11T07:36:15.843Z,82.19
2018-04-11T07:37:15.814Z,82.09
2018-04-11T07:38:15.791Z,82.09
2018-04-11T07:39:15.766Z,83.33
2018-04-11T07:40:15.781Z,83.65
2018-04-11T07:41:15.717Z,82.32
2018-04-11T07:42:15.695Z,83.94
2018-04-11T07:43:15.669Z,82.42
2018-04-11T07:44:15.644Z,83.18
2018-04-11T07:45:15.619Z,82.14
2018-04-11T07:46:15.609Z,82.51
2018-04-11T07:47:15.572Z,82.32
2018-04-11T07:48:15.548Z,82.90
2018-04-11T07:49:15.522Z,85.75
2018-04-11T07:50:15.499Z,82.42
2018-04-11T07:51:15.476Z,85.94
2018-04-11T07:52:15.451Z,83.75
2018-04-11T07:53:15.427Z,83.32
2018-04-11T07:54:15.404Z,84.94
2018-04-11T07:55:15.383Z,83.98
2018-04-11T07:56:15.355Z,84.56
2018-04-11T07:57:15.331Z,85.22
2018-04-11T07:58:15.307Z,86.27
2018-04-11T07:59:15.284Z,87.32
2018-04-11T08:00:15.267Z,87.23
2018-04-11T08:01:19.739Z,87.13
2018-04-11T08:02:15.214Z,86.84
2018-04-11T08:03:15.293Z,86.36
2018-04-11T08:04:15.165Z,87.65
2018-04-11T08:05:15.148Z,86.69
2018-04-11T08:06:15.117Z,86.27
2018-04-11T08:07:15.095Z,87.07
2018-04-11T08:08:15.071Z,87.07
2018-04-11T08:09:15.047Z,90.79
2018-04-11T08:10:15.025Z,88.31
2018-04-11T08:11:14.998Z,87.46
2018-04-11T08:12:14.976Z,87.27
2018-04-11T08:13:14.952Z,89.17
2018-04-11T08:14:14.929Z,88.70
2018-04-11T08:15:14.905Z,91.13
2018-04-11T08:16:14.931Z,92.27
2018-04-11T08:17:14.858Z,93.51
2018-04-11T08:18:14.866Z,93.98
2018-04-11T08:19:14.811Z,95.98
2018-04-11T08:20:14.788Z,93.88
2018-04-11T08:21:14.765Z,97.03
2018-04-11T08:22:14.742Z,95.12
2018-04-11T08:23:14.759Z,97.70
2018-04-11T08:24:14.695Z,94.93
2018-04-11T08:25:14.671Z,96.84
2018-04-11T08:26:14.648Z,98.75
2018-04-11T08:27:14.625Z,98.85
2018-04-11T08:28:14.603Z,97.13
2018-04-11T08:29:14.579Z,97.13
2018-04-11T08:30:14.560Z,98.56
2018-04-11T08:31:14.534Z,98.80
2018-04-11T08:32:14.512Z,99.08
2018-04-11T08:33:14.492Z,98.70
2018-04-11T08:34:14.465Z,98.70
2018-04-11T08:35:14.443Z,98.03
2018-04-11T08:36:14.420Z,98.99
2018-04-11T08:37:14.395Z,99.46
2018-04-11T08:38:14.374Z,99.99
2018-04-11T08:39:14.350Z,99.37
2018-04-11T08:40:16.580Z,99.75
2018-04-11T08:41:14.304Z,97.66
2018-04-11T08:42:14.283Z,99.99
2018-04-11T08:43:14.259Z,98.70
2018-04-11T08:44:14.239Z,99.46
2018-04-11T08:45:14.217Z,99.95
2018-04-11T08:46:14.193Z,99.95
2018-04-11T08:47:14.168Z,99.99
2018-04-11T08:48:14.145Z,99.66
2018-04-11T08:49:14.123Z,99.99
2018-04-11T08:50:14.105Z,99.56
2018-04-11T08:51:14.079Z,99.99
2018-04-11T08:52:14.055Z,98.90
2018-04-11T08:53:14.033Z,99.95
2018-04-11T08:54:14.011Z,98.90
2018-04-11T08:55:13.988Z,99.27
2018-04-11T08:56:13.965Z,99.99
2018-04-11T08:57:13.942Z,98.70
2018-04-11T08:58:13.920Z,99.46
2018-04-11T08:59:13.898Z,98.90
2018-04-11T09:00:13.875Z,99.99
2018-04-11T09:01:13.852Z,99.61
2018-04-11T09:02:13.831Z,99.99
2018-04-11T09:03:13.808Z,99.71
2018-04-11T09:04:13.786Z,99.99
2018-04-11T09:05:13.763Z,99.99
2018-04-11T09:06:13.742Z,99.66
2018-04-11T09:07:13.719Z,99.99
2018-04-11T09:08:13.697Z,99.99
2018-04-11T09:09:13.675Z,99.99
2018-04-11T09:10:13.652Z,99.66
2018-04-11T09:11:13.631Z,99.99
2018-04-11T09:12:15.112Z,99.99
2018-04-11T09:13:13.585Z,99.99
2018-04-11T09:14:13.563Z,99.99
2018-04-11T09:15:13.544Z,98.61
2018-04-11T09:16:13.527Z,98.52
2018-04-11T09:17:13.499Z,98.99
2018-04-11T09:18:13.475Z,98.66
2018-04-11T09:19:13.453Z,99.08
2018-04-11T09:20:13.432Z,96.08
2018-04-11T09:21:13.410Z,91.50
2018-04-11T09:22:13.389Z,88.54
2018-04-11T09:23:13.366Z,85.86
2018-04-11T09:24:13.345Z,90.45
2018-04-11T09:25:13.323Z,92.83
2018-04-11T09:26:13.299Z,92.79
2018-04-11T09:27:13.278Z,91.25
2018-04-11T09:28:13.257Z,86.29
2018-04-11T09:29:13.235Z,87.24
2018-04-11T09:30:13.212Z,85.14
2018-04-11T09:31:13.195Z,90.88
2018-04-11T09:32:13.170Z,91.35
2018-04-11T09:33:13.209Z,91.64
2018-04-11T09:34:13.126Z,89.44
2018-04-11T09:35:13.104Z,81.36
2018-04-11T09:36:13.084Z,83.75
2018-04-11T09:37:13.061Z,82.60
2018-04-11T09:38:13.040Z,84.99
2018-04-11T09:39:13.022Z,85.38
2018-04-11T09:40:12.997Z,83.17
2018-04-11T09:41:12.974Z,88.34
2018-04-11T09:42:12.953Z,83.75
2018-04-11T09:43:12.933Z,82.60
2018-04-11T09:44:12.910Z,79.35
2018-04-11T09:45:12.888Z,78.01
2018-04-11T09:46:12.876Z,76.81
2018-04-11T09:47:12.846Z,78.30
2018-04-11T09:48:12.825Z,78.11
2018-04-11T09:49:12.803Z,79.73
2018-04-11T09:50:12.783Z,75.62
2018-04-11T09:51:12.768Z,78.78
2018-04-11T09:52:12.740Z,78.58
2018-04-11T09:53:12.717Z,82.26
2018-04-11T09:54:12.697Z,75.47
2018-04-11T09:55:12.678Z,77.48
2018-04-11T09:56:12.655Z,77.09
2018-04-11T09:57:12.634Z,77.76
2018-04-11T09:58:12.611Z,75.02
2018-04-11T09:59:12.590Z,73.79
2018-04-11T10:00:12.570Z,72.73
2018-04-11T10:01:12.549Z,75.70
2018-04-11T10:02:12.527Z,72.06
2018-04-11T10:03:12.507Z,72.83
2018-04-11T10:04:12.486Z,73.97
2018-04-11T10:05:12.465Z,74.45
2018-04-11T10:06:12.443Z,73.69
2018-04-11T10:07:12.423Z,71.30
2018-04-11T10:08:12.403Z,72.73
2018-04-11T10:09:12.380Z,75.27
2018-04-11T10:10:12.360Z,78.05
2018-04-11T10:11:12.339Z,79.20
2018-04-11T10:12:12.328Z,82.83
2018-04-11T10:13:13.799Z,81.78
2018-04-11T10:14:12.278Z,83.73
2018-04-11T10:15:12.256Z,77.51
2018-04-11T10:16:12.236Z,76.75
2018-04-11T10:17:12.214Z,75.02
2018-04-11T10:18:12.192Z,78.38
2018-04-11T10:19:12.923Z,78.57
2018-04-11T10:20:12.154Z,75.79
2018-04-11T10:21:12.130Z,75.70
2018-04-11T10:22:12.109Z,75.22
2018-04-11T10:23:12.091Z,75.41
2018-04-11T10:24:12.070Z,79.62
2018-04-11T10:25:12.048Z,78.57
2018-04-11T10:26:12.027Z,73.69
2018-04-11T10:27:12.006Z,70.72
2018-04-11T10:28:11.986Z,70.91
2018-04-11T10:29:11.965Z,69.13
2018-04-11T10:30:11.944Z,67.98
2018-04-11T10:31:11.924Z,65.78
2018-04-11T10:32:11.904Z,64.47
2018-04-11T10:33:11.882Z,64.34
2018-04-11T10:34:11.864Z,66.64
2018-04-11T10:35:11.844Z,63.86
2018-04-11T10:36:11.821Z,63.67
2018-04-11T10:37:11.800Z,63.39
2018-04-11T10:38:11.779Z,64.34
2018-04-11T10:39:11.758Z,64.05
2018-04-11T10:40:11.739Z,65.88
2018-04-11T10:41:11.717Z,66.35
2018-04-11T10:42:11.697Z,65.58
2018-04-11T10:43:11.677Z,64.72
2018-04-11T10:44:11.657Z,64.43
2018-04-11T10:45:11.636Z,65.23
2018-04-11T10:46:11.664Z,63.80
2018-04-11T10:47:11.596Z,63.70
2018-04-11T10:48:11.576Z,64.18
2018-04-11T10:49:11.556Z,62.55
2018-04-11T10:50:11.536Z,62.46
2018-04-11T10:51:11.514Z,62.07
2018-04-11T10:52:11.496Z,61.76
2018-04-11T10:53:11.474Z,63.60
2018-04-11T10:54:11.456Z,62.84
2018-04-11T10:55:11.434Z,63.80
2018-04-11T10:56:11.414Z,61.40
2018-04-11T10:57:11.393Z,60.44
2018-04-11T10:58:11.374Z,60.83
2018-04-11T10:59:11.354Z,60.35
2018-04-11T11:00:11.334Z,61.02
2018-04-11T11:01:11.315Z,61.50
2018-04-11T11:02:11.295Z,60.93
2018-04-11T11:03:15.027Z,61.02
2018-04-11T11:04:11.255Z,61.98
2018-04-11T11:05:11.235Z,61.43
2018-04-11T11:06:11.215Z,60.76
2018-04-11T11:07:11.195Z,61.63
2018-04-11T11:08:11.177Z,61.72
2018-04-11T11:09:11.159Z,57.50
2018-04-11T11:10:11.136Z,57.98
2018-04-11T11:11:11.115Z,57.79
2018-04-11T11:12:11.096Z,57.98
2018-04-11T11:13:11.075Z,58.75
2018-04-11T11:14:11.057Z,60.00
2018-04-11T11:15:11.040Z,57.92
2018-04-11T11:16:11.021Z,57.50
2018-04-11T11:17:10.997Z,56.29
2018-04-11T11:18:10.979Z,55.97
2018-04-11T11:19:10.959Z,56.74
2018-04-11T11:20:10.939Z,56.99
2018-04-11T11:21:10.920Z,57.41
2018-04-11T11:22:10.900Z,57.41
2018-04-11T11:23:10.887Z,57.60
2018-04-11T11:24:10.862Z,59.33
2018-04-11T11:25:10.841Z,56.19
2018-04-11T11:26:10.823Z,56.00
2018-04-11T11:27:10.803Z,56.09
2018-04-11T11:28:10.830Z,55.71
2018-04-11T11:29:10.763Z,56.00
2018-04-11T11:30:10.744Z,55.68
2018-04-11T11:31:10.725Z,55.87
2018-04-11T11:32:10.712Z,55.49
2018-04-11T11:33:10.685Z,54.82
2018-04-11T11:34:10.671Z,55.90
2018-04-11T11:35:10.648Z,54.46
2018-04-11T11:36:12.881Z,54.24
2018-04-11T11:37:10.609Z,55.13
2018-04-11T11:38:10.591Z,54.56
2018-04-11T11:39:10.572Z,56.00
2018-04-11T11:40:10.552Z,54.66
2018-04-11T11:41:10.531Z,54.56
2018-04-11T11:42:12.015Z,54.91
2018-04-11T11:43:10.495Z,55.62
2018-04-11T11:44:10.476Z,54.85
2018-04-11T11:45:10.458Z,54.08
2018-04-11T11:46:10.437Z,53.70
2018-04-11T11:47:10.418Z,55.13
2018-04-11T11:48:10.400Z,54.05
2018-04-11T11:49:10.384Z,54.85
2018-04-11T11:50:10.360Z,54.27
2018-04-11T11:51:10.341Z,53.41
2018-04-11T11:52:10.323Z,52.55
2018-04-11T11:53:10.302Z,52.38
2018-04-11T11:54:10.284Z,52.76
2018-04-11T11:55:10.268Z,52.38
2018-04-11T11:56:10.246Z,50.84
2018-04-11T11:57:10.226Z,52.09
2018-04-11T11:58:10.211Z,52.28
2018-04-11T11:59:10.190Z,52.19
2018-04-11T12:00:10.170Z,53.44
2018-04-11T12:01:10.151Z,52.48
2018-04-11T12:02:10.138Z,51.54
2018-04-11T12:03:10.114Z,51.04
2018-04-11T12:04:10.096Z,50.65
2018-04-11T12:05:10.076Z,50.75
2018-04-11T12:06:10.058Z,50.65
2018-04-11T12:07:10.038Z,50.73
2018-04-11T12:08:10.022Z,51.59
2018-04-11T12:09:10.000Z,50.34
2018-04-11T12:10:09.984Z,50.73
2018-04-11T12:11:09.963Z,52.45
2018-04-11T12:12:09.945Z,52.09
2018-04-11T12:13:09.927Z,52.76
2018-04-11T12:14:12.911Z,51.90
2018-04-11T12:15:09.890Z,47.68
2018-04-11T12:16:09.874Z,48.64
2018-04-11T12:17:09.853Z,48.74
2018-04-11T12:18:09.835Z,49.02
2018-04-11T12:19:09.816Z,48.74
2018-04-11T12:20:09.799Z,50.15
2018-04-11T12:21:09.779Z,50.73
2018-04-11T12:22:09.764Z,50.63
2018-04-11T12:23:09.743Z,51.90
2018-04-11T12:24:09.726Z,52.19
2018-04-11T12:25:09.749Z,52.19
2018-04-11T12:26:09.688Z,49.98
2018-04-11T12:27:09.670Z,49.60
2018-04-11T12:28:09.655Z,48.64
2018-04-11T12:29:09.633Z,48.83
2018-04-11T12:30:09.616Z,49.02
2018-04-11T12:31:09.597Z,48.28
2018-04-11T12:32:09.581Z,48.85
2018-04-11T12:33:09.562Z,48.95
2018-04-11T12:34:09.543Z,48.47
2018-04-11T12:35:09.534Z,47.71
2018-04-11T12:36:09.509Z,46.86
2018-04-11T12:37:09.490Z,46.96
2018-04-11T12:38:09.486Z,46.58
2018-04-11T12:39:09.455Z,45.61
2018-04-11T12:40:09.436Z,46.67
2018-04-11T12:41:09.418Z,45.90
2018-04-11T12:42:09.402Z,47.36
2018-04-11T12:43:09.384Z,47.56
2018-04-11T12:44:09.371Z,46.98
2018-04-11T12:45:09.347Z,46.89
2018-04-11T12:46:09.330Z,46.50
2018-04-11T12:47:09.313Z,46.02
2018-04-11T12:48:09.296Z,45.18
2018-04-11T12:49:09.279Z,44.00
2018-04-11T12:50:09.261Z,44.46
2018-04-11T12:51:09.243Z,44.56
2018-04-11T12:52:09.978Z,45.90